Strona główna
METAR-TAF:

METAR-TAF

Lotnisko :

Port lotniczy Tuzla

Tuzla, Bośnia i Hercegowina

Szerokość geograficzna: 44-33N, Długość geograficzna: 018-42E, wysokość: 306 m

Aktualna obserwacja pogody

Raport powstał 1 godzina i 26 minut temu, godzina 11:00 UTC
Wiatr 2 kt z kierunków zmiennych
Temperatura 14°C
Wilgotność 38%
Ciśnienie 1013 hPa
Widzialność 10 km lub więcej
Mało chmury na wysokości 4000 ft

METAR: LQTZ 031100Z VRB02KT 9999 FEW040 14/00 Q1013

czas: 14:26 (12:26 UTC)

Prognoza

Raport powstał 1 godzina i 26 minut temu, godzina 11:00 UTC
Prognoza ważna od 03 godzina 12 UTC do 04 godzina 12 UTC
Wiatr 5 kt od wschodnio-północny wschód
Widzialność 10 km lub więcej
Mało chmury na wysokości 4000 ft
Prawdopodobieństwo 40% :
Przejściowo
od 04 godzina 10 UTC do 04 godzina 12 UTC
Wiatr 10 kt od północ

TAF: LQTZ 031100Z 0312/0412 07005KT 9999 FEW040 TX15/0313Z TN00/0404Z PROB40 TEMPO 0410/0412 01010KT

Obserwacja i prognoza pogody dla ponad 4000 lotnisk (raport METAR i TAF).

Dostępne stacje oznaczono żółtymi i czerwonymi punktami na mapie.

Najedź kursorem aby zobaczyć nazwę stacji.

Kliknij aby zobaczyć obserwacje i prognozy pogody.

Aby zmienić mapę: kliknij na zielony przycisk z czarnym krzyżykiem, aby powiększyć; na zielony przycisk z myślnikiem, aby pomniejszyć; na zielone strzałki, aby przejść do map sąsiednich.


METAR-TAF: